createdAt,value
2024-01-30T00:00:52.659Z,8.63
2024-01-30T00:03:19.704Z,12.20
2024-01-30T00:05:46.355Z,9.88
2024-01-30T00:08:13.139Z,12.13
2024-01-30T00:10:39.881Z,9.75
2024-01-30T00:13:06.643Z,14.82
2024-01-30T00:15:33.700Z,9.68
2024-01-30T00:18:00.406Z,14.38
2024-01-30T00:20:27.098Z,14.10
2024-01-30T00:22:53.838Z,12.93
2024-01-30T00:25:21.771Z,10.80
2024-01-30T00:27:48.602Z,11.80
2024-01-30T00:30:15.720Z,10.13
2024-01-30T00:32:42.444Z,12.20
2024-01-30T00:35:11.129Z,14.38
2024-01-30T00:37:38.178Z,11.98
2024-01-30T00:40:05.306Z,10.98
2024-01-30T00:42:32.061Z,13.52
2024-01-30T00:44:59.225Z,10.75
2024-01-30T00:47:25.819Z,7.95
2024-01-30T00:49:52.515Z,11.10
2024-01-30T00:52:19.384Z,10.02
2024-01-30T00:54:46.238Z,8.80
2024-01-30T00:57:12.919Z,11.57
2024-01-30T00:59:39.525Z,10.10
2024-01-30T01:02:06.319Z,10.43
2024-01-30T01:04:33.309Z,9.45
2024-01-30T01:07:00.205Z,9.57
2024-01-30T01:09:27.716Z,13.95
2024-01-30T01:11:54.400Z,9.77
2024-01-30T01:14:21.077Z,10.85
2024-01-30T01:16:47.687Z,11.63
2024-01-30T01:19:14.580Z,12.15
2024-01-30T01:21:41.437Z,11.52
2024-01-30T01:24:08.220Z,15.85
2024-01-30T01:26:35.038Z,16.80
2024-01-30T01:29:01.806Z,11.93
2024-01-30T01:31:30.918Z,10.77
2024-01-30T01:33:57.910Z,10.18
2024-01-30T01:36:25.013Z,7.93
2024-01-30T01:38:51.685Z,10.48
2024-01-30T01:41:18.700Z,13.57
2024-01-30T01:43:45.389Z,10.73
2024-01-30T01:46:12.342Z,9.70
2024-01-30T01:48:41.180Z,9.77
2024-01-30T01:51:08.560Z,13.93
2024-01-30T01:53:35.296Z,11.40
2024-01-30T01:56:02.013Z,9.75
2024-01-30T01:58:30.204Z,13.98
2024-01-30T02:00:58.309Z,14.55
2024-01-30T02:03:25.183Z,11.65
2024-01-30T02:05:52.671Z,8.32
2024-01-30T02:08:19.403Z,10.98
2024-01-30T02:10:46.481Z,12.63
2024-01-30T02:13:16.109Z,11.57
2024-01-30T02:15:42.962Z,10.80
2024-01-30T02:18:09.614Z,12.27
2024-01-30T02:20:38.639Z,11.70
2024-01-30T02:23:06.010Z,13.00
2024-01-30T02:25:34.813Z,11.55
2024-01-30T02:28:01.562Z,7.95
2024-01-30T02:30:28.278Z,9.07
2024-01-30T02:32:54.992Z,8.77
2024-01-30T02:35:21.760Z,13.02
2024-01-30T02:37:48.504Z,11.48
2024-01-30T02:40:15.481Z,12.98
2024-01-30T02:42:43.005Z,9.57
2024-01-30T02:45:10.771Z,8.75
2024-01-30T02:47:37.609Z,9.65
2024-01-30T02:50:05.090Z,11.07
2024-01-30T02:52:34.389Z,9.85
2024-01-30T02:55:01.188Z,14.57
2024-01-30T02:57:28.015Z,13.35
2024-01-30T02:59:54.691Z,9.65
2024-01-30T03:02:24.461Z,10.98
2024-01-30T03:04:51.165Z,10.95
2024-01-30T03:07:17.992Z,10.13
2024-01-30T03:09:45.293Z,14.15
2024-01-30T03:12:12.507Z,12.50
2024-01-30T03:14:39.135Z,10.43
2024-01-30T03:17:05.946Z,11.60
2024-01-30T03:19:32.973Z,10.68
2024-01-30T03:22:00.582Z,10.90
2024-01-30T03:24:27.463Z,13.88
2024-01-30T03:26:54.512Z,8.60
2024-01-30T03:29:21.234Z,10.23
2024-01-30T03:31:48.012Z,8.95
2024-01-30T03:34:15.116Z,12.63
2024-01-30T03:36:42.074Z,9.82
2024-01-30T03:39:09.005Z,9.52
2024-01-30T03:41:35.664Z,9.25
2024-01-30T03:44:02.525Z,10.38
2024-01-30T03:46:29.549Z,9.63
2024-01-30T03:48:56.292Z,11.85
2024-01-30T03:51:23.238Z,8.30
2024-01-30T03:53:49.907Z,10.52
2024-01-30T03:56:16.699Z,10.43
2024-01-30T03:58:43.511Z,10.73
2024-01-30T04:01:17.176Z,10.02
2024-01-30T04:03:45.530Z,12.95
2024-01-30T04:06:13.204Z,12.40
2024-01-30T04:08:39.903Z,10.23
2024-01-30T04:11:07.029Z,11.40
2024-01-30T04:13:37.123Z,9.82
2024-01-30T04:16:04.443Z,12.98
2024-01-30T04:18:31.843Z,9.20
2024-01-30T04:20:58.659Z,9.85
2024-01-30T04:23:25.347Z,10.80
2024-01-30T04:25:52.399Z,11.02
2024-01-30T04:28:19.730Z,6.93
2024-01-30T04:30:46.493Z,10.43
2024-01-30T04:33:13.371Z,8.73
2024-01-30T04:35:40.138Z,9.98
2024-01-30T04:38:06.860Z,9.95
2024-01-30T04:40:33.452Z,9.27
2024-01-30T04:43:00.156Z,10.68
2024-01-30T04:45:26.836Z,10.00
2024-01-30T04:47:53.526Z,11.40
2024-01-30T04:50:20.207Z,6.82
2024-01-30T04:52:46.887Z,8.07
2024-01-30T04:55:13.748Z,8.02
2024-01-30T04:57:43.136Z,10.40
2024-01-30T05:00:10.509Z,8.55
2024-01-30T05:02:37.168Z,8.05
2024-01-30T05:05:06.844Z,8.20
2024-01-30T05:07:33.614Z,9.50
2024-01-30T05:10:02.439Z,8.82
2024-01-30T05:12:30.944Z,7.13
2024-01-30T05:14:57.666Z,8.57
2024-01-30T05:17:24.410Z,7.03
2024-01-30T05:19:51.118Z,8.60
2024-01-30T05:22:19.837Z,6.15
2024-01-30T05:24:46.761Z,7.60
2024-01-30T05:27:14.740Z,12.65
2024-01-30T05:29:44.615Z,12.75
2024-01-30T05:32:11.941Z,17.77
2024-01-30T05:34:38.889Z,9.23
2024-01-30T05:37:05.733Z,10.98
2024-01-30T05:39:34.251Z,11.95
2024-01-30T05:42:01.164Z,8.80
2024-01-30T05:44:27.837Z,6.95
2024-01-30T05:46:54.772Z,8.73
2024-01-30T05:49:21.604Z,7.55
2024-01-30T05:51:48.408Z,7.00
2024-01-30T05:54:17.556Z,8.65
2024-01-30T05:56:44.585Z,8.60
2024-01-30T05:59:11.226Z,6.75
2024-01-30T06:01:38.056Z,8.93
2024-01-30T06:04:04.997Z,6.88
2024-01-30T06:06:31.735Z,9.40
2024-01-30T06:08:58.474Z,6.63
2024-01-30T06:11:25.179Z,11.48
2024-01-30T06:13:53.042Z,8.73
2024-01-30T06:16:22.146Z,8.38
2024-01-30T06:18:49.037Z,7.93
2024-01-30T06:21:15.818Z,8.77
2024-01-30T06:23:42.590Z,7.60
2024-01-30T06:26:09.280Z,9.07
2024-01-30T06:28:35.992Z,8.50
2024-01-30T06:31:05.631Z,9.63
2024-01-30T06:33:32.384Z,9.55
2024-01-30T06:35:59.134Z,8.02
2024-01-30T06:38:25.882Z,6.97
2024-01-30T06:40:52.508Z,6.35
2024-01-30T06:43:19.307Z,8.55
2024-01-30T06:45:46.092Z,6.65
2024-01-30T06:48:12.838Z,6.82
2024-01-30T06:50:39.657Z,8.98
2024-01-30T06:53:06.460Z,11.32
2024-01-30T06:55:33.203Z,5.63
2024-01-30T06:57:59.917Z,5.25
2024-01-30T07:00:26.590Z,6.13
2024-01-30T07:02:53.233Z,5.63
2024-01-30T07:05:20.035Z,5.80
2024-01-30T07:07:46.826Z,9.02
2024-01-30T07:10:13.724Z,6.43
2024-01-30T07:12:41.511Z,11.63
2024-01-30T07:15:11.385Z,8.48
2024-01-30T07:17:38.617Z,7.78
2024-01-30T07:20:07.360Z,12.02
2024-01-30T07:22:34.690Z,11.95
2024-01-30T07:25:02.012Z,7.93
2024-01-30T07:27:28.840Z,36.55
2024-01-30T07:29:55.501Z,75.70
2024-01-30T07:32:22.271Z,106.28
2024-01-30T07:34:58.893Z,124.97
2024-01-30T07:37:34.039Z,148.75
2024-01-30T07:40:00.894Z,65.35
2024-01-30T07:42:27.658Z,111.05
2024-01-30T07:44:54.240Z,171.40
2024-01-30T07:47:20.918Z,209.00
2024-01-30T07:49:47.816Z,228.32
2024-01-30T07:52:14.734Z,228.20
2024-01-30T07:54:41.452Z,83.57
2024-01-30T07:57:08.092Z,36.08
2024-01-30T07:59:34.722Z,120.40
2024-01-30T08:02:01.441Z,46.63
2024-01-30T08:04:28.258Z,88.07
2024-01-30T08:06:55.034Z,122.78
2024-01-30T08:09:21.701Z,42.20
2024-01-30T08:11:48.300Z,17.30
2024-01-30T08:14:15.558Z,11.63
2024-01-30T08:16:42.217Z,7.75
2024-01-30T08:19:11.615Z,9.32
2024-01-30T08:21:39.877Z,8.40
2024-01-30T08:24:07.725Z,15.10
2024-01-30T08:26:35.028Z,8.70
2024-01-30T08:29:02.719Z,13.48
2024-01-30T08:31:29.761Z,9.45
2024-01-30T08:33:56.713Z,12.27
2024-01-30T08:36:23.532Z,11.68
2024-01-30T08:38:50.215Z,11.80
2024-01-30T08:41:17.012Z,6.93
2024-01-30T08:43:45.729Z,9.38
2024-01-30T08:46:12.849Z,9.65
2024-01-30T08:48:39.675Z,9.30
2024-01-30T08:51:09.293Z,10.80
2024-01-30T08:53:38.286Z,11.77
2024-01-30T08:56:05.871Z,11.40
2024-01-30T08:58:32.747Z,10.07
2024-01-30T09:01:00.317Z,9.15
2024-01-30T09:03:27.209Z,7.97
2024-01-30T09:05:53.916Z,9.15
2024-01-30T09:08:20.679Z,11.68
2024-01-30T09:10:47.585Z,7.97
2024-01-30T09:13:14.384Z,8.77
2024-01-30T09:15:43.440Z,9.48
2024-01-30T09:18:10.675Z,8.82
2024-01-30T09:20:37.368Z,8.35
2024-01-30T09:23:04.455Z,8.23
2024-01-30T09:25:31.354Z,7.32
2024-01-30T09:27:58.119Z,9.90
2024-01-30T09:30:24.778Z,13.82
2024-01-30T09:32:51.460Z,8.15
2024-01-30T09:35:18.294Z,4.78
2024-01-30T09:37:45.097Z,4.22
2024-01-30T09:40:12.202Z,3.65
2024-01-30T09:42:39.116Z,4.20
2024-01-30T09:45:07.036Z,4.25
2024-01-30T09:47:45.263Z,4.50
2024-01-30T09:50:13.868Z,3.42
2024-01-30T09:52:41.571Z,6.72
2024-01-30T09:55:08.888Z,3.17
2024-01-30T09:57:36.635Z,3.85
2024-01-30T10:00:05.367Z,3.63
2024-01-30T10:02:40.082Z,5.20
2024-01-30T10:05:07.217Z,4.00
2024-01-30T10:07:34.308Z,9.80
2024-01-30T10:10:01.230Z,4.60
2024-01-30T10:12:28.401Z,4.35
2024-01-30T10:14:57.697Z,4.07
2024-01-30T10:17:32.585Z,4.47
2024-01-30T10:20:02.043Z,4.80
2024-01-30T10:22:29.862Z,5.40
2024-01-30T10:24:56.981Z,4.65
2024-01-30T10:27:30.823Z,4.80
2024-01-30T10:29:57.716Z,8.07
2024-01-30T10:32:25.024Z,5.43
2024-01-30T10:34:51.900Z,3.90
2024-01-30T10:37:22.640Z,4.45
2024-01-30T10:39:51.984Z,6.93
2024-01-30T10:42:22.054Z,4.65
2024-01-30T10:45:00.611Z,6.03
2024-01-30T10:47:28.873Z,4.53
2024-01-30T10:49:56.901Z,4.25
2024-01-30T10:52:27.145Z,4.85
2024-01-30T10:54:55.495Z,4.30
2024-01-30T10:57:25.442Z,3.58
2024-01-30T11:00:00.746Z,5.88
2024-01-30T11:02:28.500Z,4.38
2024-01-30T11:05:00.414Z,5.20
2024-01-30T11:07:29.430Z,7.85
2024-01-30T11:09:59.391Z,5.78
2024-01-30T11:12:27.110Z,5.20
2024-01-30T11:15:10.422Z,5.18
2024-01-30T11:17:49.039Z,4.60
2024-01-30T11:20:32.795Z,5.30
2024-01-30T11:23:00.406Z,5.30
2024-01-30T11:25:27.582Z,3.47
2024-01-30T11:27:57.386Z,5.75
2024-01-30T11:30:27.864Z,4.22
2024-01-30T11:33:09.468Z,5.95
2024-01-30T11:35:36.843Z,5.20
2024-01-30T11:38:06.852Z,6.68
2024-01-30T11:40:35.077Z,5.88
2024-01-30T11:43:03.178Z,3.33
2024-01-30T11:45:30.288Z,3.88
2024-01-30T11:47:57.654Z,5.07
2024-01-30T11:50:25.969Z,5.57
2024-01-30T11:52:52.715Z,3.75
2024-01-30T11:55:21.038Z,5.28
2024-01-30T11:57:47.922Z,4.07
2024-01-30T12:00:20.149Z,4.70
2024-01-30T12:02:57.026Z,6.15
2024-01-30T12:05:24.813Z,5.72
2024-01-30T12:07:52.122Z,8.38
2024-01-30T12:10:19.124Z,8.25
2024-01-30T12:12:48.707Z,6.35
2024-01-30T12:15:16.674Z,6.22
2024-01-30T12:17:43.911Z,6.28
2024-01-30T12:20:12.639Z,5.43
2024-01-30T12:22:43.816Z,4.28
2024-01-30T12:25:14.205Z,7.55
2024-01-30T12:27:45.930Z,5.00
2024-01-30T12:30:15.642Z,6.18
2024-01-30T12:32:44.701Z,4.45
2024-01-30T12:35:12.980Z,5.43
2024-01-30T12:37:40.940Z,7.80
2024-01-30T12:40:15.956Z,11.68
2024-01-30T12:42:52.645Z,4.45
2024-01-30T12:45:23.722Z,6.93
2024-01-30T12:47:51.166Z,7.75
2024-01-30T12:50:18.586Z,6.07
2024-01-30T12:52:48.173Z,7.03
2024-01-30T12:55:16.457Z,6.63
2024-01-30T12:57:44.038Z,6.40
2024-01-30T13:00:11.003Z,7.97
2024-01-30T13:02:38.469Z,7.50
2024-01-30T13:05:05.994Z,7.95
2024-01-30T13:07:32.983Z,8.88
2024-01-30T13:10:04.665Z,6.50
2024-01-30T13:12:33.751Z,8.73
2024-01-30T13:15:05.097Z,5.18
2024-01-30T13:17:32.258Z,6.32
2024-01-30T13:20:05.016Z,6.05
2024-01-30T13:22:39.194Z,6.75
2024-01-30T13:25:08.321Z,4.20
2024-01-30T13:27:35.490Z,6.32
2024-01-30T13:30:02.238Z,8.73
2024-01-30T13:32:29.044Z,4.22
2024-01-30T13:34:56.053Z,7.78
2024-01-30T13:37:24.395Z,5.45
2024-01-30T13:39:51.442Z,3.80
2024-01-30T13:42:18.242Z,6.97
2024-01-30T13:44:45.097Z,5.03
2024-01-30T13:47:11.938Z,6.88
2024-01-30T13:49:38.781Z,5.55
2024-01-30T13:52:06.072Z,7.18
2024-01-30T13:54:32.767Z,5.72
2024-01-30T13:56:59.653Z,7.05
2024-01-30T13:59:27.065Z,5.22
2024-01-30T14:01:53.933Z,4.35
2024-01-30T14:04:20.876Z,5.65
2024-01-30T14:06:53.808Z,5.78
2024-01-30T14:09:28.864Z,7.45
2024-01-30T14:11:55.575Z,7.30
2024-01-30T14:14:22.275Z,5.68
2024-01-30T14:16:49.006Z,4.03
2024-01-30T14:19:15.739Z,5.78
2024-01-30T14:21:43.234Z,6.57
2024-01-30T14:24:11.303Z,6.78
2024-01-30T14:26:38.055Z,5.10
2024-01-30T14:29:04.814Z,5.47
2024-01-30T14:31:31.576Z,6.35
2024-01-30T14:33:58.277Z,6.55
2024-01-30T14:36:29.021Z,8.77
2024-01-30T14:38:56.534Z,6.53
2024-01-30T14:41:23.681Z,5.63
2024-01-30T14:43:50.484Z,5.43
2024-01-30T14:46:17.545Z,7.15
2024-01-30T14:48:44.645Z,4.32
2024-01-30T14:51:11.373Z,6.63
2024-01-30T14:53:38.184Z,7.20
2024-01-30T14:56:05.710Z,6.18
2024-01-30T14:58:33.004Z,9.05
2024-01-30T15:00:59.938Z,9.65
2024-01-30T15:03:29.838Z,4.97
2024-01-30T15:05:56.914Z,4.80
2024-01-30T15:08:26.841Z,6.53
2024-01-30T15:10:54.758Z,6.80
2024-01-30T15:13:21.553Z,5.95
2024-01-30T15:15:48.416Z,8.05
2024-01-30T15:18:15.451Z,6.25
2024-01-30T15:20:42.295Z,5.13
2024-01-30T15:23:08.977Z,6.55
2024-01-30T15:25:35.970Z,8.50
2024-01-30T15:28:03.717Z,8.05
2024-01-30T15:30:30.590Z,7.10
2024-01-30T15:32:57.495Z,7.00
2024-01-30T15:35:24.282Z,4.60
2024-01-30T15:37:50.996Z,5.38
2024-01-30T15:40:18.742Z,6.32
2024-01-30T15:42:45.508Z,3.55
2024-01-30T15:45:15.481Z,5.38
2024-01-30T15:47:42.497Z,4.93
2024-01-30T15:50:10.430Z,5.65
2024-01-30T15:52:37.257Z,7.05
2024-01-30T15:55:04.157Z,5.82
2024-01-30T15:57:31.197Z,4.20
2024-01-30T15:59:58.305Z,5.05
2024-01-30T16:02:25.330Z,7.55
2024-01-30T16:04:52.208Z,3.65
2024-01-30T16:07:19.047Z,4.65
2024-01-30T16:09:46.604Z,6.15
2024-01-30T16:12:13.917Z,6.03
2024-01-30T16:14:40.871Z,6.07
2024-01-30T16:17:07.537Z,8.35
2024-01-30T16:19:34.450Z,7.32
2024-01-30T16:22:01.367Z,6.07
2024-01-30T16:24:28.144Z,5.97
2024-01-30T16:26:54.791Z,6.97
2024-01-30T16:29:21.442Z,5.60
2024-01-30T16:31:48.102Z,9.13
2024-01-30T16:34:15.108Z,7.72
2024-01-30T16:36:44.539Z,9.40
2024-01-30T16:39:11.721Z,5.50
2024-01-30T16:41:38.700Z,5.72
2024-01-30T16:44:06.208Z,5.82
2024-01-30T16:46:34.155Z,6.68
2024-01-30T16:49:01.112Z,7.53
2024-01-30T16:51:28.123Z,7.22
2024-01-30T16:53:54.985Z,5.65
2024-01-30T16:56:21.673Z,8.20
2024-01-30T16:58:48.507Z,6.53
2024-01-30T17:01:15.388Z,6.75
2024-01-30T17:03:43.506Z,7.93
2024-01-30T17:06:13.831Z,8.85
2024-01-30T17:08:41.109Z,7.28
2024-01-30T17:11:09.927Z,7.28
2024-01-30T17:13:39.741Z,8.32
2024-01-30T17:16:08.009Z,7.68
2024-01-30T17:18:34.832Z,9.68
2024-01-30T17:21:01.561Z,8.90
2024-01-30T17:23:28.319Z,7.43
2024-01-30T17:25:55.441Z,6.68
2024-01-30T17:28:22.405Z,8.20
2024-01-30T17:30:49.253Z,6.32
2024-01-30T17:33:16.529Z,6.25
2024-01-30T17:35:43.603Z,8.00
2024-01-30T17:38:10.566Z,8.68
2024-01-30T17:40:37.318Z,7.70
2024-01-30T17:43:04.197Z,6.53
2024-01-30T17:45:30.850Z,8.48
2024-01-30T17:47:57.588Z,6.80
2024-01-30T17:50:24.452Z,11.63
2024-01-30T17:52:51.354Z,7.28
2024-01-30T17:55:18.195Z,6.63
2024-01-30T17:57:44.940Z,8.65
2024-01-30T18:00:14.697Z,6.93
2024-01-30T18:02:45.390Z,8.45
2024-01-30T18:05:15.143Z,8.90
2024-01-30T18:07:42.693Z,6.32
2024-01-30T18:10:10.348Z,6.88
2024-01-30T18:12:37.275Z,6.18
2024-01-30T18:15:04.493Z,8.90
2024-01-30T18:17:31.262Z,7.50
2024-01-30T18:19:57.982Z,6.78
2024-01-30T18:22:25.222Z,8.30
2024-01-30T18:24:53.336Z,6.53
2024-01-30T18:27:20.155Z,7.80
2024-01-30T18:29:46.925Z,9.05
2024-01-30T18:32:13.649Z,10.82
2024-01-30T18:34:40.495Z,5.78
2024-01-30T18:37:09.104Z,5.47
2024-01-30T18:39:35.859Z,8.65
2024-01-30T18:42:02.522Z,5.25
2024-01-30T18:44:29.246Z,6.75
2024-01-30T18:46:55.955Z,5.70
2024-01-30T18:49:22.653Z,8.88
2024-01-30T18:51:54.075Z,7.82
2024-01-30T18:54:24.745Z,6.70
2024-01-30T18:56:53.004Z,8.80
2024-01-30T18:59:19.732Z,6.30
2024-01-30T19:01:47.074Z,6.38
2024-01-30T19:04:14.576Z,10.27
2024-01-30T19:06:41.451Z,7.65
2024-01-30T19:09:11.349Z,9.27
2024-01-30T19:11:40.270Z,7.68
2024-01-30T19:14:07.773Z,11.85
2024-01-30T19:16:34.794Z,6.90
2024-01-30T19:19:01.784Z,7.65
2024-01-30T19:21:28.887Z,6.32
2024-01-30T19:24:00.161Z,9.20
2024-01-30T19:26:27.032Z,11.38
2024-01-30T19:28:53.684Z,6.25
2024-01-30T19:31:20.712Z,10.90
2024-01-30T19:33:47.514Z,8.95
2024-01-30T19:36:15.038Z,14.18
2024-01-30T19:38:42.434Z,7.47
2024-01-30T19:41:14.008Z,8.52
2024-01-30T19:43:40.937Z,8.90
2024-01-30T19:46:09.827Z,6.20
2024-01-30T19:48:36.713Z,8.63
2024-01-30T19:51:03.546Z,6.95
2024-01-30T19:53:30.273Z,8.68
2024-01-30T19:55:56.978Z,9.52
2024-01-30T19:58:24.164Z,7.00
2024-01-30T20:00:51.767Z,8.40
2024-01-30T20:03:18.533Z,11.00
2024-01-30T20:05:45.881Z,9.48
2024-01-30T20:08:14.565Z,11.80
2024-01-30T20:10:41.574Z,9.02
2024-01-30T20:13:08.802Z,9.40
2024-01-30T20:15:35.642Z,10.02
2024-01-30T20:18:02.374Z,8.35
2024-01-30T20:20:29.329Z,12.90
2024-01-30T20:22:56.110Z,10.40
2024-01-30T20:25:22.814Z,9.20
2024-01-30T20:27:49.671Z,11.80
2024-01-30T20:30:18.240Z,9.30
2024-01-30T20:32:45.434Z,11.35
2024-01-30T20:35:19.686Z,10.38
2024-01-30T20:37:48.784Z,13.50
2024-01-30T20:40:17.332Z,9.25
2024-01-30T20:42:44.146Z,9.48
2024-01-30T20:45:10.934Z,8.23
2024-01-30T20:47:37.751Z,8.55
2024-01-30T20:50:04.799Z,12.13
2024-01-30T20:52:31.558Z,10.63
2024-01-30T20:54:58.278Z,11.88
2024-01-30T20:57:24.935Z,12.93
2024-01-30T20:59:51.567Z,11.85
2024-01-30T21:02:18.439Z,9.50
2024-01-30T21:04:45.233Z,9.38
2024-01-30T21:07:12.118Z,11.10
2024-01-30T21:09:38.818Z,11.38
2024-01-30T21:12:05.921Z,14.55
2024-01-30T21:14:32.575Z,7.32
2024-01-30T21:16:59.313Z,11.43
2024-01-30T21:19:26.035Z,8.70
2024-01-30T21:21:52.859Z,9.57
2024-01-30T21:24:19.498Z,9.48
2024-01-30T21:26:46.179Z,11.32
2024-01-30T21:29:12.869Z,12.15
2024-01-30T21:31:40.067Z,12.02
2024-01-30T21:34:06.740Z,12.40
2024-01-30T21:36:33.429Z,12.07
2024-01-30T21:39:00.750Z,9.93
2024-01-30T21:41:27.428Z,12.32
2024-01-30T21:43:54.454Z,9.93
2024-01-30T21:46:25.707Z,8.93
2024-01-30T21:48:52.923Z,11.40
2024-01-30T21:51:21.953Z,11.25
2024-01-30T21:53:48.716Z,14.15
2024-01-30T21:56:15.474Z,9.93
2024-01-30T21:58:42.182Z,11.52
2024-01-30T22:01:08.962Z,11.05
2024-01-30T22:03:37.891Z,14.23
2024-01-30T22:06:04.946Z,9.73
2024-01-30T22:08:31.699Z,10.15
2024-01-30T22:10:58.479Z,14.10
2024-01-30T22:13:26.155Z,8.27
2024-01-30T22:15:52.849Z,8.75
2024-01-30T22:18:19.573Z,13.30
2024-01-30T22:20:46.509Z,8.60
2024-01-30T22:23:13.202Z,12.85
2024-01-30T22:25:40.393Z,11.35
2024-01-30T22:28:07.476Z,12.50
2024-01-30T22:30:36.329Z,12.68
2024-01-30T22:33:03.290Z,13.45
2024-01-30T22:35:30.046Z,12.07
2024-01-30T22:37:57.171Z,10.93
2024-01-30T22:40:24.175Z,9.70
2024-01-30T22:42:50.928Z,12.90
2024-01-30T22:45:17.730Z,13.88
2024-01-30T22:47:45.582Z,11.73
2024-01-30T22:50:12.403Z,13.30
2024-01-30T22:52:39.251Z,11.02
2024-01-30T22:55:08.153Z,11.85
2024-01-30T22:57:35.062Z,11.15
2024-01-30T23:00:02.560Z,14.05
2024-01-30T23:02:29.491Z,13.60
2024-01-30T23:04:56.132Z,12.52
2024-01-30T23:07:23.028Z,10.48
2024-01-30T23:09:50.149Z,12.32
2024-01-30T23:12:17.000Z,12.77
2024-01-30T23:14:45.791Z,12.52
2024-01-30T23:17:12.562Z,12.00
2024-01-30T23:19:39.315Z,15.52
2024-01-30T23:22:05.937Z,11.52
2024-01-30T23:24:32.694Z,14.13
2024-01-30T23:26:59.347Z,14.73
2024-01-30T23:29:26.765Z,10.80
2024-01-30T23:31:53.664Z,12.20
2024-01-30T23:34:20.496Z,13.07
2024-01-30T23:36:49.955Z,17.20
2024-01-30T23:39:19.959Z,13.45
2024-01-30T23:41:46.628Z,17.98
2024-01-30T23:44:13.315Z,14.88
2024-01-30T23:46:40.101Z,16.63
2024-01-30T23:49:06.943Z,11.70
2024-01-30T23:51:36.483Z,10.85
2024-01-30T23:54:03.249Z,11.15
2024-01-30T23:56:29.876Z,16.15
2024-01-30T23:58:56.667Z,14.82
